createdAt,value
2019-03-08T00:00:01.839Z,15.90
2019-03-08T00:02:30.553Z,19.57
2019-03-08T00:04:59.247Z,12.80
2019-03-08T00:07:27.903Z,16.70
2019-03-08T00:09:56.723Z,10.80
2019-03-08T00:12:25.359Z,8.47
2019-03-08T00:14:54.086Z,9.57
2019-03-08T00:17:22.709Z,10.50
2019-03-08T00:19:51.357Z,10.10
2019-03-08T00:22:20.069Z,13.17
2019-03-08T00:24:48.713Z,14.07
2019-03-08T00:27:17.334Z,10.20
2019-03-08T00:29:46.102Z,11.87
2019-03-08T00:32:15.024Z,9.40
2019-03-08T00:34:43.652Z,14.47
2019-03-08T00:37:12.301Z,15.60
2019-03-08T00:39:40.926Z,15.60
2019-03-08T00:42:09.556Z,12.03
2019-03-08T00:44:38.221Z,10.17
2019-03-08T00:47:06.846Z,14.00
2019-03-08T00:49:35.483Z,8.83
2019-03-08T00:52:04.163Z,10.67
2019-03-08T00:54:32.811Z,18.57
2019-03-08T00:57:01.444Z,11.77
2019-03-08T00:59:30.112Z,12.30
2019-03-08T01:01:58.741Z,16.93
2019-03-08T01:04:27.380Z,11.87
2019-03-08T01:06:56.079Z,9.47
2019-03-08T01:09:24.703Z,10.97
2019-03-08T01:11:53.344Z,11.03
2019-03-08T01:14:22.004Z,9.40
2019-03-08T01:20:15.851Z,7.20
2019-03-08T01:22:44.475Z,10.67
2019-03-08T01:25:13.103Z,9.53
2019-03-08T01:28:05.830Z,13.03
2019-03-08T01:30:35.541Z,7.80
2019-03-08T01:33:04.292Z,12.77
2019-03-08T01:35:33.240Z,12.03
2019-03-08T01:38:02.670Z,9.10
2019-03-08T01:40:31.289Z,10.40
2019-03-08T01:42:59.956Z,10.03
2019-03-08T01:45:28.599Z,13.97
2019-03-08T01:47:57.215Z,11.20
2019-03-08T01:50:26.052Z,11.43
2019-03-08T01:52:54.781Z,12.47
2019-03-08T01:55:23.407Z,17.00
2019-03-08T01:57:52.083Z,10.03
2019-03-08T02:00:21.584Z,10.77
2019-03-08T02:02:50.228Z,11.90
2019-03-08T02:05:19.849Z,11.27
2019-03-08T02:07:48.472Z,19.23
2019-03-08T02:10:17.402Z,14.87
2019-03-08T02:12:46.082Z,11.20
2019-03-08T02:15:18.964Z,11.30
2019-03-08T02:17:47.596Z,11.03
2019-03-08T02:20:20.863Z,10.50
2019-03-08T02:22:49.488Z,11.90
2019-03-08T02:25:18.131Z,14.43
2019-03-08T02:27:46.804Z,14.07
2019-03-08T02:30:18.931Z,13.77
2019-03-08T02:32:47.546Z,13.77
2019-03-08T02:38:43.628Z,15.40
2019-03-08T02:41:12.897Z,9.53
2019-03-08T02:43:41.523Z,11.73
2019-03-08T02:46:10.198Z,15.17
2019-03-08T02:48:38.827Z,11.47
2019-03-08T02:51:07.459Z,14.83
2019-03-08T02:53:36.134Z,10.50
2019-03-08T02:56:04.775Z,10.70
2019-03-08T02:58:33.396Z,13.13
2019-03-08T03:01:02.115Z,13.67
2019-03-08T03:03:30.973Z,12.43
2019-03-08T03:05:59.598Z,16.27
2019-03-08T03:08:28.261Z,10.33
2019-03-08T03:10:56.875Z,14.93
2019-03-08T03:13:25.493Z,8.80
2019-03-08T03:15:54.158Z,15.87
2019-03-08T03:18:22.954Z,12.87
2019-03-08T03:20:51.594Z,13.20
2019-03-08T03:23:20.832Z,10.77
2019-03-08T03:25:49.466Z,10.83
2019-03-08T03:28:18.114Z,17.23
2019-03-08T03:30:46.790Z,10.47
2019-03-08T03:33:15.697Z,10.27
2019-03-08T03:35:44.335Z,10.67
2019-03-08T03:38:12.993Z,12.00
2019-03-08T03:40:41.638Z,10.90
2019-03-08T03:43:10.280Z,13.33
2019-03-08T03:45:38.950Z,9.13
2019-03-08T03:48:07.685Z,9.27
2019-03-08T03:50:36.301Z,12.63
2019-03-08T03:53:04.969Z,17.13
2019-03-08T03:55:33.612Z,15.50
2019-03-08T03:58:02.237Z,8.73
2019-03-08T04:00:30.888Z,8.20
2019-03-08T04:02:59.511Z,10.93
2019-03-08T04:05:28.147Z,12.47
2019-03-08T04:07:56.817Z,12.37
2019-03-08T04:10:25.438Z,12.37
2019-03-08T04:12:54.057Z,10.80
2019-03-08T04:15:22.919Z,12.67
2019-03-08T04:17:51.540Z,11.13
2019-03-08T04:20:20.748Z,10.30
2019-03-08T04:22:49.402Z,14.87
2019-03-08T04:25:18.040Z,13.23
2019-03-08T04:27:46.662Z,12.00
2019-03-08T04:30:17.404Z,13.97
2019-03-08T04:32:46.035Z,10.00
2019-03-08T04:35:14.725Z,18.20
2019-03-08T04:37:43.499Z,14.20
2019-03-08T04:40:13.424Z,10.20
2019-03-08T04:42:42.066Z,16.57
2019-03-08T06:12:07.795Z,22.97
2019-03-08T06:14:36.418Z,28.97
2019-03-08T06:17:05.038Z,19.40
2019-03-08T06:19:33.712Z,20.07
2019-03-08T06:22:02.347Z,20.47
2019-03-08T06:24:30.982Z,36.40
2019-03-08T06:26:59.646Z,23.67
2019-03-08T06:29:28.451Z,26.33
2019-03-08T06:31:57.090Z,24.60
2019-03-08T06:34:25.751Z,32.60
2019-03-08T06:36:54.374Z,41.90
2019-03-08T06:39:22.989Z,28.40
2019-03-08T06:41:52.446Z,49.37
2019-03-08T06:44:21.247Z,37.67
2019-03-08T06:46:49.877Z,32.57
2019-03-08T06:49:18.543Z,40.03
2019-03-08T06:51:47.174Z,28.70
2019-03-08T06:54:15.804Z,55.40
2019-03-08T06:56:44.469Z,35.13
2019-03-08T06:59:17.987Z,48.43
2019-03-08T07:01:46.613Z,35.03
2019-03-08T07:04:15.208Z,41.73
2019-03-08T07:06:43.831Z,31.40
2019-03-08T07:09:12.457Z,41.17
2019-03-08T07:11:41.120Z,26.50
2019-03-08T07:14:09.938Z,31.73
2019-03-08T07:16:38.583Z,54.30
2019-03-08T07:19:07.244Z,29.37
2019-03-08T07:21:40.485Z,32.97
2019-03-08T07:24:10.767Z,31.40
2019-03-08T07:26:46.922Z,35.50
2019-03-08T07:29:17.186Z,31.23
2019-03-08T07:32:02.363Z,45.50
2019-03-08T07:34:35.387Z,35.30
2019-03-08T07:37:17.790Z,33.70
2019-03-08T07:40:00.050Z,31.50
2019-03-08T07:42:30.346Z,30.67
2019-03-08T07:45:03.860Z,31.80
2019-03-08T07:47:34.133Z,33.17
2019-03-08T07:50:13.528Z,30.20
2019-03-08T07:52:46.816Z,39.20
2019-03-08T07:55:20.091Z,36.90
2019-03-08T07:58:08.244Z,33.33
2019-03-08T08:00:47.244Z,30.10
2019-03-08T08:16:22.377Z,28.47
2019-03-08T08:19:08.603Z,36.17
2019-03-08T08:21:44.738Z,30.73
2019-03-08T08:24:20.768Z,31.17
2019-03-08T08:27:07.174Z,24.83
2019-03-08T08:29:40.326Z,24.57
2019-03-08T08:32:10.596Z,30.27
2019-03-08T08:34:46.736Z,29.73
2019-03-08T08:37:33.162Z,22.53
2019-03-08T08:40:03.475Z,30.17
2019-03-08T08:42:39.749Z,28.33
2019-03-08T08:45:12.058Z,25.20
2019-03-08T08:47:45.314Z,29.53
2019-03-08T08:50:24.666Z,35.67
2019-03-08T08:52:57.428Z,24.03
2019-03-08T08:55:27.695Z,32.87
2019-03-08T08:57:58.005Z,22.47
2019-03-08T09:00:43.232Z,32.73
2019-03-08T09:03:19.521Z,31.50
2019-03-08T09:05:52.490Z,26.47
2019-03-08T09:08:23.031Z,25.60
2019-03-08T09:10:59.231Z,28.83
2019-03-08T09:13:45.532Z,28.37
2019-03-08T09:16:15.835Z,35.20
2019-03-08T09:18:46.097Z,28.50
2019-03-08T09:21:25.280Z,34.53
2019-03-08T09:24:07.450Z,25.57
2019-03-08T09:26:52.649Z,25.23
2019-03-08T09:29:22.913Z,20.93
2019-03-08T09:31:59.198Z,27.93
2019-03-08T09:34:29.388Z,23.50
2019-03-08T09:36:59.838Z,23.13
2019-03-08T09:39:33.086Z,27.40
2019-03-08T09:42:21.232Z,25.00
2019-03-08T09:44:51.522Z,29.30
2019-03-08T09:47:21.783Z,22.37
2019-03-08T09:49:55.068Z,27.97
2019-03-08T09:52:40.433Z,19.10
2019-03-08T09:55:12.136Z,26.47
2019-03-08T09:57:45.121Z,25.93
2019-03-08T10:00:16.923Z,29.03
2019-03-08T10:02:47.110Z,18.40
2019-03-08T10:05:33.323Z,24.40
2019-03-08T10:08:18.450Z,26.73
2019-03-08T10:10:48.748Z,21.50
2019-03-08T10:13:24.878Z,26.87
2019-03-08T10:15:55.174Z,23.23
2019-03-08T10:18:34.209Z,22.90
2019-03-08T10:21:04.433Z,24.37
2019-03-08T10:23:51.031Z,21.33
2019-03-08T10:26:21.338Z,26.87
2019-03-08T10:28:51.590Z,25.83
2019-03-08T10:31:38.114Z,25.50
2019-03-08T10:34:11.160Z,21.70
2019-03-08T10:36:44.169Z,23.87
2019-03-08T10:39:14.433Z,26.63
2019-03-08T10:41:53.623Z,24.73
2019-03-08T10:44:29.883Z,18.77
2019-03-08T10:47:00.173Z,18.60
2019-03-08T10:49:36.382Z,19.70
2019-03-08T10:54:58.564Z,22.73
2019-03-08T10:57:44.012Z,19.70
2019-03-08T11:00:27.383Z,18.57
2019-03-08T11:03:13.633Z,18.50
2019-03-08T11:05:47.004Z,28.03
2019-03-08T11:08:17.271Z,22.33
2019-03-08T11:10:53.306Z,24.80
2019-03-08T11:13:43.170Z,18.13
2019-03-08T11:16:11.493Z,27.10
2019-03-08T11:18:44.971Z,22.00
2019-03-08T11:21:31.293Z,20.37
2019-03-08T11:24:10.603Z,21.37
2019-03-08T11:27:04.763Z,19.07
2019-03-08T11:29:34.991Z,19.60
2019-03-08T11:32:11.318Z,14.17
2019-03-08T11:34:51.981Z,11.63
2019-03-08T11:37:25.452Z,4.30
2019-03-08T11:39:55.631Z,4.67
2019-03-08T11:42:30.176Z,2.40
2019-03-08T11:45:12.483Z,4.53
2019-03-08T11:47:54.821Z,4.50
2019-03-08T11:50:25.115Z,2.20
2019-03-08T11:52:58.617Z,3.60
2019-03-08T11:55:44.005Z,5.93
2019-03-08T11:58:32.304Z,3.33
2019-03-08T12:01:02.591Z,8.53
2019-03-08T12:03:32.773Z,6.07
2019-03-08T12:06:15.206Z,5.03
2019-03-08T12:09:03.662Z,3.90
2019-03-08T12:11:45.787Z,3.60
2019-03-08T12:14:21.823Z,9.90
2019-03-08T12:16:55.023Z,22.23
2019-03-08T12:19:41.544Z,11.07
2019-03-08T12:22:11.844Z,14.40
2019-03-08T12:24:58.043Z,14.77
2019-03-08T12:27:31.313Z,20.03
2019-03-08T12:30:01.577Z,14.70
2019-03-08T12:32:34.547Z,14.93
2019-03-08T12:35:21.013Z,14.87
2019-03-08T12:37:54.266Z,17.37
2019-03-08T12:40:24.528Z,14.13
2019-03-08T12:42:54.819Z,8.47
2019-03-08T12:45:41.169Z,13.87
2019-03-08T12:48:11.459Z,14.87
2019-03-08T12:50:47.589Z,11.70
2019-03-08T12:53:21.018Z,7.40
2019-03-08T12:55:51.246Z,4.83
2019-03-08T12:58:39.445Z,7.03
2019-03-08T13:01:09.695Z,5.53
2019-03-08T13:03:55.919Z,7.13
2019-03-08T13:06:26.174Z,7.27
2019-03-08T13:09:08.341Z,7.90
2019-03-08T13:11:37.143Z,6.67
2019-03-08T13:14:05.765Z,3.57
2019-03-08T13:16:34.413Z,4.97
2019-03-08T13:19:02.963Z,6.03
2019-03-08T13:21:31.583Z,4.87
2019-03-08T13:24:00.236Z,6.83
2019-03-08T13:26:29.038Z,2.33
2019-03-08T13:28:57.649Z,4.10
2019-03-08T13:31:26.297Z,4.50
2019-03-08T13:33:54.911Z,2.50
2019-03-08T13:36:23.529Z,5.00
2019-03-08T13:38:52.202Z,2.37
2019-03-08T13:41:21.101Z,4.43
2019-03-08T13:43:49.718Z,6.80
2019-03-08T13:46:18.365Z,7.60
2019-03-08T13:48:46.994Z,3.63
2019-03-08T13:51:16.647Z,2.83
2019-03-08T13:53:45.301Z,2.93
2019-03-08T13:56:14.092Z,5.10
2019-03-08T13:58:42.720Z,5.57
2019-03-08T14:01:11.371Z,3.17
2019-03-08T14:03:39.990Z,5.87
2019-03-08T14:06:08.610Z,9.57
2019-03-08T14:08:37.265Z,4.47
2019-03-08T14:11:06.041Z,6.23
2019-03-08T14:13:34.661Z,4.50
2019-03-08T14:16:03.318Z,3.57
2019-03-08T14:18:31.917Z,3.83
2019-03-08T14:21:00.534Z,3.83
2019-03-08T14:23:29.179Z,11.13
2019-03-08T14:25:57.801Z,9.43
2019-03-08T14:28:26.428Z,2.37
2019-03-08T14:30:58.068Z,3.40
2019-03-08T14:33:26.920Z,8.77
2019-03-08T14:35:55.538Z,7.70
2019-03-08T14:38:24.184Z,7.97
2019-03-08T14:40:58.962Z,5.80
2019-03-08T14:43:49.016Z,5.53
2019-03-08T14:46:20.980Z,2.50
2019-03-08T14:48:49.874Z,2.97
2019-03-08T14:51:18.524Z,3.00
2019-03-08T14:53:47.134Z,3.83
2019-03-08T14:56:15.754Z,8.10
2019-03-08T14:58:44.401Z,7.20
2019-03-08T15:01:13.365Z,8.80
2019-03-08T15:03:43.872Z,4.67
2019-03-08T15:06:12.365Z,4.57
2019-03-08T15:08:40.964Z,12.53
2019-03-08T15:11:09.576Z,8.27
2019-03-08T15:13:38.225Z,6.57
2019-03-08T15:16:06.844Z,4.47
2019-03-08T15:18:35.466Z,4.87
2019-03-08T15:21:04.119Z,5.37
2019-03-08T15:23:32.733Z,5.63
2019-03-08T15:26:01.350Z,4.60
2019-03-08T15:28:30.080Z,4.53
2019-03-08T15:30:58.698Z,4.00
2019-03-08T15:33:27.313Z,7.37
2019-03-08T15:35:55.964Z,4.93
2019-03-08T15:38:24.578Z,5.87
2019-03-08T15:40:53.205Z,5.30
2019-03-08T15:43:21.852Z,5.70
2019-03-08T15:45:50.474Z,6.70
2019-03-08T15:48:19.097Z,4.43
2019-03-08T15:50:48.143Z,5.20
2019-03-08T15:53:16.818Z,4.00
2019-03-08T15:55:52.567Z,5.33
2019-03-08T15:58:15.984Z,6.53
2019-03-08T16:00:44.596Z,6.83
2019-03-08T16:03:13.213Z,5.47
2019-03-08T16:05:41.861Z,6.57
2019-03-08T16:08:10.757Z,13.70
2019-03-08T16:10:39.377Z,6.87
2019-03-08T16:13:08.023Z,6.27
2019-03-08T16:15:36.639Z,5.70
2019-03-08T16:18:05.247Z,5.60
2019-03-08T16:20:37.339Z,27.27
2019-03-08T16:23:06.680Z,9.93
2019-03-08T16:25:34.682Z,5.97
2019-03-08T16:28:03.121Z,15.37
2019-03-08T16:30:35.710Z,6.67
2019-03-08T16:33:25.003Z,11.13
2019-03-08T16:36:06.088Z,11.80
2019-03-08T16:38:51.999Z,11.10
2019-03-08T16:41:38.210Z,6.43
2019-03-08T16:44:10.882Z,6.53
2019-03-08T16:46:40.833Z,18.37
2019-03-08T16:49:10.720Z,17.07
2019-03-08T16:51:42.418Z,18.93
2019-03-08T16:54:18.314Z,10.97
2019-03-08T16:56:51.450Z,7.93
2019-03-08T16:59:21.726Z,12.37
2019-03-08T17:01:54.714Z,9.73
2019-03-08T17:04:25.041Z,10.73
2019-03-08T17:07:11.617Z,5.83
2019-03-08T17:09:47.664Z,5.40
2019-03-08T17:12:30.033Z,7.27
2019-03-08T17:15:16.902Z,9.53
2019-03-08T17:18:05.122Z,9.63
2019-03-08T17:20:44.231Z,6.13
2019-03-08T17:23:23.124Z,17.70
2019-03-08T17:25:56.104Z,25.20
2019-03-08T17:28:32.353Z,37.90
2019-03-08T17:31:08.376Z,19.27
2019-03-08T17:33:54.550Z,14.60
2019-03-08T17:36:40.824Z,10.17
2019-03-08T17:39:17.383Z,14.97
2019-03-08T17:41:50.603Z,13.23
2019-03-08T17:44:23.796Z,15.53
2019-03-08T17:47:00.093Z,20.53
2019-03-08T17:49:39.344Z,14.50
2019-03-08T17:52:24.748Z,22.47
2019-03-08T17:55:09.305Z,8.53
2019-03-08T17:57:42.978Z,5.50
2019-03-08T18:00:22.260Z,3.93
2019-03-08T18:03:01.675Z,3.73
2019-03-08T18:05:50.152Z,5.17
2019-03-08T18:08:20.455Z,7.67
2019-03-08T18:10:53.398Z,9.43
2019-03-08T18:13:39.929Z,7.43
2019-03-08T18:16:19.269Z,5.50
2019-03-08T18:18:52.568Z,6.13
2019-03-08T18:21:25.611Z,5.13
2019-03-08T18:24:04.733Z,9.63
2019-03-08T18:26:37.946Z,7.17
2019-03-08T18:29:26.356Z,9.63
2019-03-08T18:31:56.620Z,8.40
2019-03-08T18:34:32.686Z,11.00
2019-03-08T18:37:02.955Z,11.93
2019-03-08T18:39:49.159Z,9.57
2019-03-08T18:42:25.137Z,13.37
2019-03-08T18:44:59.025Z,9.20
2019-03-08T18:47:44.371Z,10.00
2019-03-08T18:50:14.667Z,9.33
2019-03-08T18:52:44.942Z,9.23
2019-03-08T18:55:21.122Z,9.20
2019-03-08T18:57:54.459Z,7.90
2019-03-08T19:00:27.486Z,6.60
2019-03-08T19:03:06.807Z,10.20
2019-03-08T19:05:37.101Z,8.77
2019-03-08T19:08:23.335Z,8.87
2019-03-08T19:11:09.790Z,10.80
2019-03-08T19:13:42.802Z,15.93
2019-03-08T19:16:13.085Z,14.13
2019-03-08T19:18:46.156Z,7.83
2019-03-08T19:21:16.442Z,6.57
2019-03-08T19:23:52.690Z,8.07
2019-03-08T19:26:31.815Z,10.17
2019-03-08T19:29:02.129Z,13.67
2019-03-08T19:31:38.391Z,14.30
2019-03-08T19:34:11.448Z,11.83
2019-03-08T19:36:44.730Z,13.07
2019-03-08T19:39:17.871Z,10.03
2019-03-08T19:41:51.100Z,15.30
2019-03-08T19:44:27.087Z,24.80
2019-03-08T19:47:16.093Z,14.03
2019-03-08T19:49:46.400Z,16.67
2019-03-08T19:52:22.706Z,12.20
2019-03-08T19:54:53.001Z,12.70
2019-03-08T19:57:23.260Z,11.47
2019-03-08T19:59:53.517Z,12.17
2019-03-08T20:02:26.546Z,12.40
2019-03-08T20:05:13.097Z,10.00
2019-03-08T20:07:43.414Z,14.23
2019-03-08T20:10:13.685Z,9.23
2019-03-08T20:12:44.132Z,14.10
2019-03-08T20:15:20.604Z,10.20
2019-03-08T20:17:50.856Z,12.73
2019-03-08T20:20:27.258Z,9.53
2019-03-08T20:23:00.423Z,11.37
2019-03-08T20:25:46.933Z,14.73
2019-03-08T20:28:17.192Z,8.73
2019-03-08T20:30:47.483Z,14.70
2019-03-08T20:33:17.783Z,10.30
2019-03-08T20:35:48.060Z,19.50
2019-03-08T20:38:34.244Z,12.17
2019-03-08T20:41:11.729Z,16.10
2019-03-08T20:43:50.966Z,14.97
2019-03-08T20:46:21.222Z,13.17
2019-03-08T20:48:49.850Z,13.13
2019-03-08T20:51:18.517Z,45.50
2019-03-08T20:53:47.158Z,20.27
2019-03-08T20:56:16.638Z,11.63
2019-03-08T20:58:45.299Z,13.37
2019-03-08T21:01:13.918Z,13.53
2019-03-08T21:03:42.686Z,12.03
2019-03-08T21:06:11.371Z,12.30
2019-03-08T21:08:39.993Z,12.37
2019-03-08T21:11:08.620Z,10.50
2019-03-08T21:13:37.298Z,11.13
2019-03-08T21:16:05.931Z,10.30
2019-03-08T21:18:34.562Z,18.23
2019-03-08T21:21:03.225Z,12.17
2019-03-08T21:23:31.854Z,11.70
2019-03-08T21:26:00.490Z,10.00
2019-03-08T21:28:29.151Z,13.33
2019-03-08T21:30:57.958Z,12.37
2019-03-08T21:33:26.590Z,12.80
2019-03-08T21:35:55.255Z,10.93
2019-03-08T21:38:23.892Z,11.73
2019-03-08T21:40:52.585Z,12.00
2019-03-08T21:43:21.275Z,8.17
2019-03-08T21:45:49.901Z,8.57
2019-03-08T21:48:18.541Z,10.23
2019-03-08T21:50:47.204Z,12.53
2019-03-08T21:53:15.844Z,7.60
2019-03-08T21:55:44.478Z,8.00
2019-03-08T21:58:13.150Z,9.70
2019-03-08T22:00:41.853Z,10.33
2019-03-08T22:03:10.482Z,10.00
2019-03-08T22:05:40.794Z,10.90
2019-03-08T22:08:16.872Z,9.87
2019-03-08T22:10:44.386Z,11.83
2019-03-08T22:13:13.075Z,17.37
2019-03-08T22:15:41.709Z,14.10
2019-03-08T22:18:10.478Z,21.10
2019-03-08T22:20:39.208Z,15.00
2019-03-08T22:23:08.009Z,9.17
2019-03-08T22:25:36.635Z,13.73
2019-03-08T22:28:05.303Z,9.30
2019-03-08T22:30:33.926Z,11.03
2019-03-08T22:33:02.556Z,17.27
2019-03-08T22:35:31.229Z,17.63
2019-03-08T22:37:59.854Z,19.10
2019-03-08T22:40:28.487Z,15.60
2019-03-08T22:42:57.147Z,10.30
2019-03-08T22:45:25.766Z,12.57
2019-03-08T22:47:54.399Z,11.63
2019-03-08T22:50:23.151Z,14.47
2019-03-08T22:52:51.843Z,11.70
2019-03-08T22:55:20.495Z,18.37
2019-03-08T22:57:49.163Z,15.33
2019-03-08T23:00:31.223Z,13.17
2019-03-08T23:02:59.957Z,12.97
2019-03-08T23:05:28.793Z,11.83
2019-03-08T23:07:57.419Z,12.40
2019-03-08T23:10:26.080Z,13.70
2019-03-08T23:12:54.711Z,13.13
2019-03-08T23:15:23.364Z,19.80
2019-03-08T23:17:52.030Z,10.97
2019-03-08T23:20:20.735Z,17.83
2019-03-08T23:22:49.296Z,12.07
2019-03-08T23:25:19.483Z,13.40
2019-03-08T23:27:52.933Z,15.77
2019-03-08T23:30:23.240Z,15.53
2019-03-08T23:32:51.937Z,19.80
2019-03-08T23:35:20.574Z,20.13
2019-03-08T23:37:49.254Z,15.33
2019-03-08T23:40:17.878Z,13.97
2019-03-08T23:42:46.567Z,10.73
2019-03-08T23:45:15.226Z,11.53
2019-03-08T23:47:43.856Z,13.67
2019-03-08T23:50:12.584Z,8.03
2019-03-08T23:52:42.191Z,10.70
2019-03-08T23:55:11.513Z,8.27
2019-03-08T23:57:40.142Z,9.87
